Weather observations for the past three days for
Fremont Municipal Airport
Metric (Imperial)
Date Time (edt) Wind (kph) Vis. (km) Weather Sky Cond. Temperature (ºC) Relative Humidity Wind Chill (°C) Heat Index (°C) Pressure Precipitation (cm)
Air Dwpt 6 hour altimeter (cm) sea level (mb) 1 hr 3 hr 6 hr
Max. Min.
06 05:15 NW 7 16.09 Fair CLR 0 -2 87% -2 75.79 0.0
06 04:55 NW 7 16.09 Fair CLR 1 -2 81% -1 75.77 0.0
06 04:35 NW 7 16.09 Fair CLR 1 -2 81% -1 75.77 0.0
06 04:15 N 7 16.09 Fair CLR 1 -2 81% -1 75.77 0.0
06 03:55 NW 9 16.09 Fair CLR 1 -3 75% -2 75.77 0.0
06 03:35 NW 7 16.09 Fair CLR 2 -3 70% 0 75.77 0.0
06 03:15 W 6 16.09 Fair CLR 2 -3 70% 75.77 0.0
06 02:55 W 6 16.09 Fair CLR 2 -3 70% 75.74 0.0
06 02:35 W 4 16.09 Fair CLR 2 -2 75% 75.74 0.0
06 02:15 NW 4 16.09 Fair CLR 3 -2 70% 75.77 0.0
06 01:55 W 6 16.09 Fair CLR 4 -2 10.7 2 65% 75.79 0.0
06 01:35 W 6 16.09 Fair CLR 3 -2 70% 75.79 0.0
06 01:15 W 6 16.09 Fair CLR 3 -2 70% 75.77 0.0
06 00:55 NW 6 16.09 Fair CLR 3 -1 75% 75.74 0.0
06 00:35 NW 6 16.09 Fair CLR 4 -2 65% 75.74 0.0
06 00:15 W 6 16.09 Fair CLR 4 -2 65% 75.77 0.0
05 23:55 NW 6 16.09 Fair CLR 5 -1 66% 75.74 0.0
05 23:35 W 7 16.09 Fair CLR 5 -2 61% 4 75.74 0.0
05 23:15 W 6 16.09 Fair CLR 5 -2 61% 75.74 0.0
05 22:55 NW 9 16.09 Fair CLR 5 -1 66% 3 75.74 0.0
05 22:35 NW 7 16.09 Fair CLR 6 -1 61% 5 75.72 0.0
05 22:15 NW 6 16.09 Fair CLR 7 -1 57% 75.69 0.0
05 21:55 W 9 16.09 Fair CLR 7 -1 57% 5 75.67 0.0
05 21:35 W 6 16.09 Fair CLR 8 -2 50% 75.67 0.0
05 21:15 W 9 16.09 Fair CLR 8 -3 46% 7 75.64 0.0
05 20:55 W 11 16.09 Fair CLR 9 -3 43% 8 75.64 0.0
05 20:35 W 15 16.09 Fair CLR 9 -3 43% 7 75.64 0.0
05 20:15 W 19 16.09 Fair CLR 10 -3 40% 8 75.64 0.0
05 19:55 W 20 16.09 Fair CLR 11 -4 13.3 10.7 35% 75.62 0.0
05 19:35 W 15 16.09 Fair CLR 11 -3 38% 75.62 0.0
05 19:15 W 15 16.09 Fair CLR 11 -3 38% 75.59 0.0
05 18:55 W 17 G 31 16.09 Fair CLR 11 -4 35% 75.59 0.0
05 18:35 W 20 16.09 Fair CLR 12 -3 35% 75.59 0.0
05 18:15 NW 24 16.09 Fair CLR 13 -2 36% 75.59 0.0
05 17:55 W 20 16.09 Fair CLR 12 -3 35% 75.59 0.0
05 17:35 W 22 G 39 16.09 Fair CLR 13 -3 33% 75.59 0.0
05 17:15 W 20 16.09 Fair CLR 12 -2 38% 75.59 0.0
05 16:55 W 19 16.09 Fair CLR 12 -3 35% 75.62 0.0
05 16:35 W 22 G 33 16.09 Fair CLR 13 -3 33% 75.62 0.0
05 16:15 W 19 16.09 Fair CLR 12 -3 35% 75.62 0.0
05 15:55 W 20 G 31 16.09 Fair CLR 13 -2 36% 75.62 0.0
05 15:35 W 24 16.09 Fair CLR 12 -3 35% 75.62 0.0
05 15:15 NW 26 G 33 16.09 Fair CLR 13 -2 36% 75.59 0.0
05 14:55 W 30 G 39 16.09 Fair CLR 12 -2 38% 75.59 0.0
05 14:35 W 26 G 35 16.09 Fair CLR 12 -4 33% 75.59 0.0
05 14:15 W 28 G 37 16.09 Fair CLR 13 -3 33% 75.59 0.0
05 13:55 W 26 16.09 Fair CLR 13 -4 13.5 6.4 31% 75.57 0.0
05 13:35 W 26 G 35 16.09 Fair CLR 13 -4 31% 75.51 0.0
05 13:15 W 24 G 41 16.09 Fair CLR 13 -4 31% 75.51 0.0
05 12:55 W 24 G 37 16.09 Fair CLR 12 -5 30% 75.51 0.0
05 12:35 W 26 G 35 16.09 Fair CLR 13 -5 28% 75.51 0.0
05 12:15 W 22 G 37 16.09 Fair CLR 12 -5 30% 75.54 0.0
05 11:55 W 20 G 33 16.09 Fair CLR 12 -5 30% 75.54 0.0
05 11:35 W 24 16.09 Fair CLR 12 -5 30% 75.54 0.0
05 11:15 W 20 G 31 16.09 Fair CLR 12 -6 28% 75.57 0.0
05 10:55 NW 22 G 35 16.09 Fair CLR 12 -4 33% 75.57 0.0
05 10:35 W 20 G 31 16.09 Fair CLR 11 -5 32% 75.54 0.0
05 10:15 NW 22 G 28 16.09 Fair CLR 10 -4 37% 7 75.54 0.0
05 09:55 W 17 16.09 Fair CLR 9 -4 40% 7 75.54 0.0
05 09:35 NW 20 16.09 Fair CLR 9 -3 43% 6 75.51 0.0
05 09:15 NW 26 16.09 Fair CLR 10 -3 40% 7 75.49 0.0
05 08:55 W 20 16.09 Fair CLR 9 -2 46% 6 75.57 0.0
05 08:35 NW 22 G 31 16.09 Fair CLR 8 -1 53% 5 75.44 0.0
05 08:15 NW 19 16.09 Fair CLR 8 1 62% 5 75.41 0.0
05 07:55 NW 15 16.09 Fair CLR 7 3 12.4 4.7 76% 5 75.41 0.0
05 07:35 W 17 16.09 Fair CLR 6 3 81% 3 75.41 0.0
05 07:15 W 13 16.09 Fair CLR 6 3 81% 4 75.36 0.0
05 06:55 W 15 16.09 Fair CLR 6 3 81% 3 75.34 0.0
05 06:35 NW 4 16.09 Fair CLR 5 2 81% 75.29 0.0
05 06:15 W 6 16.09 Fair CLR 6 2 76% 75.29 0.0
05 05:55 W 4 16.09 Fair CLR 6 2 76% 75.26 0.0
05 05:35 N 6 16.09 Fair CLR 7 3 76% 75.23 0.0
05 05:15 NW 7 16.09 Fair CLR 7 3 76% 6 75.21 0.0
05 04:55 N 13 16.09 Fair CLR 8 3 71% 6 75.16 0.0
05 04:35 N 17 16.09 Fair CLR 9 3 66% 7 75.13 0.0
05 04:15 N 19 16.09 Fair CLR 9 3 66% 7 75.11 0.0
05 03:55 NW 19 16.09 Fair CLR 9 2 62% 7 75.06 0.0
05 03:35 W 9 16.09 A Few Clouds FEW120 11 2 54% 75.01 0.0
05 03:15 W 13 16.09 Partly Cloudy SCT120 11 2 54% 75.01 0.0
05 02:55 W 11 16.09 Partly Cloudy SCT120 12 2 51% 75.01 0.0
05 02:35 W 13 16.09 A Few Clouds FEW120 12 3 54% 75.01 0.0
05 02:15 W 13 16.09 Mostly Cloudy BKN110 12 3 54% 75.01 0.0
05 01:55 W 11 16.09 Mostly Cloudy BKN110 12 4 21.9 11.8 58% 74.98 0.0
05 01:35 W 15 16.09 Overcast OVC110 12 4 58% 74.98 0.0
05 01:15 W 19 16.09 Overcast OVC110 12 5 63% 74.96 0.0
05 00:55 W 9 16.09 Overcast FEW075 OVC095 12 6 67% 74.93 0.0
05 00:35 SW 6 16.09 Mostly Cloudy FEW080 BKN090 BKN110 12 7 72% 74.9 0.0
05 00:15 W 9 16.09 Light Rain FEW080 BKN100 13 7 67% 74.9 0.0
04 23:55 S 15 16.09 Overcast FEW080 OVC100 12 8 77% 74.93 0.0
04 23:35 W 7 16.09 Light Rain OVC090 13 8 72% 74.9 0.0
04 23:15 W 19 16.09 Light Rain FEW080 BKN090 OVC110 14 7 63% 74.88 0.0
04 22:55 SW 19 16.09 Mostly Cloudy BKN110 15 7 59% 74.85 0.0
04 22:35 SW 31 G 44 16.09 Partly Cloudy SCT110 15 7 59% 74.85 0.0
04 22:15 SW 22 G 31 16.09 A Few Clouds FEW120 17 8 56% 74.85 0.0
04 21:55 W 17 G 26 16.09 A Few Clouds FEW100 FEW110 18 9 56% 74.78 0.0
04 21:35 SW 19 G 30 16.09 Mostly Cloudy BKN100 BKN120 20 9 49% 74.75 0.0
04 21:15 SW 31 G 43 16.09 Mostly Cloudy BKN100 20 6 40% 74.68 0.0
04 20:55 SW 17 16.09 Mostly Cloudy BKN110 20 5 38% 74.68 0.0
04 20:35 SW 20 16.09 Partly Cloudy SCT100 21 5 35% 74.68 0.0
04 20:15 SW 22 16.09 Fair CLR 21 5 35% 74.65 0.0
04 19:55 SW 28 G 35 16.09 Fair CLR 22 5 23.4 21.7 33% 74.65 0.0
04 19:35 SW 30 16.09 Fair CLR 22 4 31% 74.65 0.0
04 19:15 SW 26 G 35 16.09 Fair CLR 23 5 31% 74.7 0.0
04 18:55 SW 22 G 43 16.09 Fair CLR 23 5 31% 74.73 0.0
04 18:35 SW 28 G 43 16.09 Fair CLR 23 5 31% 74.75 0.0
04 18:15 SW 39 G 46 16.09 Fair and Breezy CLR 23 5 31% 74.75 0.0
04 17:55 S 31 G 43 16.09 Fair CLR 22 6 36% 74.78 0.0
04 17:35 SW 26 G 44 16.09 Fair CLR 22 6 36% 74.8 0.0
04 17:15 SW 30 G 44 16.09 Fair CLR 23 6 33% 74.83 0.0
04 16:55 SW 26 G 43 16.09 Fair CLR 22 6 36% 74.85 0.0
04 16:35 SW 41 G 56 16.09 Fair and Breezy CLR 22 5 33% 74.85 0.0
04 16:15 SW 33 G 46 16.09 Fair and Breezy CLR 23 5 31% 74.88 0.0
04 15:55 SW 37 G 44 16.09 Fair and Breezy CLR 22 4 31% 74.88 0.0
04 15:35 SW 33 G 44 16.09 Fair and Breezy CLR 22 3 29% 74.9 0.0
04 15:15 SW 28 G 54 16.09 Fair CLR 22 1 25% 74.9 0.0
04 14:55 SW 35 G 52 16.09 Fair and Breezy CLR 22 1 25% 74.9 0.0
04 14:35 SW 43 G 54 16.09 Fair and Windy CLR 23 1 23% 74.9 0.0
04 14:15 SW 31 G 44 16.09 Fair CLR 23 2 25% 74.93 0.0
04 13:55 SW 30 G 43 16.09 Fair CLR 22 1 22.6 8.9 25% 74.93 0.0
04 13:35 SW 30 G 57 16.09 Fair CLR 22 2 27% 74.96 0.0
04 13:15 SW 35 G 46 16.09 Fair and Breezy CLR 22 1 25% 74.96 0.0
04 12:55 SW 30 G 50 16.09 Fair CLR 22 1 25% 74.98 0.0
04 12:35 SW 39 G 44 16.09 Fair and Breezy CLR 22 2 27% 75.01 0.0
04 12:15 SW 35 G 43 16.09 Fair and Breezy CLR 21 4 33% 75.01 0.0
04 11:55 SW 24 G 39 16.09 Fair CLR 20 4 35% 75.03 0.0
04 11:35 SW 31 G 41 16.09 Fair CLR 20 5 38% 75.06 0.0
04 11:15 S 28 16.09 Fair CLR 19 6 43% 75.06 0.0
04 10:55 S 26 16.09 Fair CLR 18 5 43% 75.08 0.0
04 10:35 S 24 16.09 Fair CLR 17 6 49% 75.08 0.0
04 10:15 S 26 16.09 Fair CLR 16 6 52% 75.11 0.0
04 09:55 S 20 16.09 Fair CLR 15 7 59% 75.13 0.0
04 09:35 SW 24 16.09 Fair CLR 14 6 59% 75.16 0.0
04 09:15 SW 20 16.09 Fair CLR 13 7 67% 75.16 0.0
04 08:55 S 20 16.09 Fair CLR 12 7 72% 75.16 0.0
04 08:35 S 22 16.09 Fair CLR 11 7 77% 75.18 0.0
04 08:15 S 20 16.09 Fair CLR 10 7 82% 8 75.16 0.0
04 07:55 S 15 16.09 Fair CLR 9 6 9.3 4.3 82% 7 75.16 0.0
04 07:35 S 13 16.09 Fair CLR 8 6 87% 6 75.16 0.0
04 07:15 S 7 16.09 Fair CLR 7 5 87% 6 75.13 0.0
04 06:55 S 7 16.09 Fair CLR 7 5 87% 6 75.13 0.0
04 06:35 S 6 16.09 Fair CLR 6 5 93% 75.16 0.0
04 06:15 S 6 16.09 Fair CLR 5 3 87% 75.16 0.0
04 05:55 S 6 16.09 Fair CLR 7 5 87% 75.16 0.0
04 05:35 S 6 16.09 Fair CLR 7 5 87% 75.18 0.0
04 05:15 S 4 16.09 Fair CLR 6 5 93% 75.21 0.0
04 04:55 SW 4 16.09 Fair CLR 8 5 82% 75.21 0.0
04 04:35 S 7 16.09 Fair CLR 8 5 82% 7 75.21 0.0
04 04:15 S 9 16.09 Fair CLR 8 5 82% 7 75.21 0.0
04 03:55 Vrbl 2 16.09 Fair CLR 5 4 93% 75.21 0.0
04 03:35 S 6 16.09 Fair CLR 8 5 82% 75.23 0.0
04 03:15 S 6 16.09 Fair CLR 8 5 82% 75.23 0.0
04 02:55 S 7 16.09 Fair CLR 8 5 82% 7 75.26 0.0
04 02:35 S 6 16.09 Fair CLR 9 5 76% 75.26 0.0
04 02:15 S 7 16.09 Fair CLR 9 5 76% 8 75.29 0.0
04 01:55 S 7 16.09 Fair CLR 9 5 13.8 8.5 76% 8 75.29 0.0
04 01:35 S 9 16.09 Fair CLR 9 5 76% 8 75.29 0.0
04 01:15 S 11 16.09 Fair CLR 10 5 71% 9 75.31 0.0
04 00:55 S 11 16.09 Fair CLR 10 5 71% 9 75.31 0.0
04 00:35 S 9 16.09 Fair CLR 10 5 71% 9 75.34 0.0
04 00:15 S 13 16.09 Fair CLR 10 5 71% 8 75.34 0.0
03 23:55 S 13 16.09 Fair CLR 11 5 67% 75.36 0.0
03 23:35 S 15 16.09 Fair CLR 11 5 67% 75.36 0.0
03 23:15 S 11 16.09 Fair CLR 11 5 67% 75.36 0.0
03 22:55 S 13 G 26 16.09 Fair CLR 12 5 63% 75.39 0.0
03 22:35 S 15 16.09 Fair CLR 12 5 63% 75.39 0.0
03 22:15 S 13 16.09 Fair CLR 12 4 58% 75.39 0.0
03 21:55 S 17 G 28 16.09 Fair CLR 12 4 58% 75.39 0.0
03 21:35 S 22 16.09 Fair CLR 13 4 55% 75.39 0.0
03 21:15 S 20 16.09 Fair CLR 13 4 55% 75.39 0.0
03 20:55 S 22 G 33 16.09 Fair CLR 13 4 55% 75.39 0.0
03 20:35 S 26 G 43 16.09 Fair CLR 13 4 55% 75.39 0.0
03 20:15 S 20 G 43 16.09 A Few Clouds FEW060 14 4 51% 75.39 0.0
03 19:55 SW 30 G 39 16.09 Mostly Cloudy BKN060 14 4 15.9 10.9 51% 75.39 0.0
03 19:35 SW 30 G 46 16.09 Mostly Cloudy BKN060 14 4 51% 75.41 0.0
03 19:15 S 28 G 39 16.09 Partly Cloudy SCT060 14 3 48% 75.44 0.0
03 18:55 SW 30 G 43 16.09 Fair CLR 14 4 51% 75.44 0.0
03 18:35 SW 37 G 54 16.09 Fair and Breezy CLR 14 3 48% 75.49 0.0
03 18:15 S 39 G 52 16.09 Fair and Breezy CLR 14 3 48% 75.49 0.0
03 17:55 SW 33 G 57 16.09 Fair and Breezy CLR 13 4 55% 75.51 0.0
03 17:35 SW 31 G 50 16.09 A Few Clouds FEW085 14 4 51% 75.54 0.0
03 17:15 SW 31 G 44 16.09 Mostly Cloudy BKN085 13 4 55% 75.57 0.0
03 16:55 SW 35 G 46 16.09 Mostly Cloudy and Breezy BKN085 12 4 58% 75.59 0.0
03 16:35 SW 30 G 44 16.09 Overcast OVC085 12 4 58% 75.62 0.0
03 16:15 SW 30 G 41 16.09 Overcast OVC085 11 4 62% 75.64 0.0
03 15:55 SW 31 G 39 16.09 Overcast OVC075 11 4 62% 75.64 0.0
03 15:35 SW 31 G 50 16.09 Overcast OVC070 11 3 58% 75.67 0.0
03 15:15 SW 37 G 50 16.09 Overcast and Breezy BKN070 BKN090 OVC110 12 3 54% 75.67 0.0
03 14:55 SW 35 G 59 16.09 Mostly Cloudy and Breezy FEW090 BKN110 15 4 48% 75.67 0.0
03 14:35 SW 41 G 54 16.09 Partly Cloudy and Breezy SCT110 15 4 48% 75.64 0.0
03 14:15 W 35 G 54 16.09 Partly Cloudy and Breezy SCT120 15 4 48% 75.67 0.0
03 13:55 SW 37 G 56 16.09 Partly Cloudy and Breezy SCT110 15 3 15 8.1 45% 75.69 0.0
03 13:35 SW 43 G 54 16.09 Mostly Cloudy and Windy BKN110 14 3 48% 75.69 0.0
03 13:15 SW 26 G 44 16.09 Mostly Cloudy SCT090 BKN110 14 4 51% 75.72 0.0
03 12:55 SW 33 G 46 16.09 Mostly Cloudy and Breezy BKN090 BKN120 13 3 51% 75.74 0.0
03 12:35 SW 30 G 39 16.09 Partly Cloudy SCT090 SCT110 13 3 51% 75.77 0.0
03 12:15 SW 35 G 41 16.09 Partly Cloudy and Breezy SCT090 SCT110 13 2 47% 75.77 0.0
03 11:55 SW 26 G 43 16.09 Partly Cloudy FEW070 SCT080 13 3 51% 75.79 0.0
03 11:35 SW 24 G 35 16.09 Mostly Cloudy BKN070 BKN080 11 2 54% 75.79 0.0
03 11:15 SW 26 16.09 Mostly Cloudy FEW046 SCT055 BKN070 11 2 54% 75.82 0.0
03 10:55 SW 19 G 31 16.09 Light Rain SCT046 OVC055 10 3 62% 8 75.84 0.0
03 10:35 SW 20 G 28 16.09 Light Rain SCT060 OVC070 10 2 58% 8 75.84 0.0
03 10:15 SW 15 16.09 Overcast SCT060 OVC070 10 2 58% 8 75.84 0.0
03 09:55 S 13 16.09 Overcast FEW016 FEW048 OVC060 9 2 62% 7 75.87 0.0
03 09:35 SW 17 16.09 Overcast OVC060 9 1 58% 7 75.87 0.0
03 09:15 SW 17 16.09 Light Rain OVC065 9 1 58% 7 75.87 0.0
03 08:55 SW 17 16.09 Overcast OVC070 10 1 54% 8 75.87 0.0
03 08:35 SW 15 16.09 Overcast OVC075 9 1 58% 7 75.84 0.0
03 08:15 SW 17 16.09 Mostly Cloudy BKN075 8 1 62% 6 75.84 0.0
03 07:55 SW 7 16.09 Partly Cloudy SCT075 SCT090 8 0 8.2 -0.2 57% 7 75.84 0.0
03 07:35 SW 13 16.09 Partly Cloudy FEW070 FEW075 SCT085 8 0 57% 6 75.84 0.0
03 07:15 SW 9 16.09 Overcast FEW050 SCT065 OVC085 8 0 57% 7 75.84 0.0
03 06:55 SW 15 16.09 Overcast OVC080 6 0 66% 3 75.84 0.0
03 06:35 S 13 16.09 Mostly Cloudy SCT080 BKN090 3 0 81% 0 75.84 0.0
03 06:15 S 6 16.09 Partly Cloudy SCT095 2 -1 81% 75.84 0.0
03 05:55 S 4 16.09 Mostly Cloudy BKN095 0 -2 87% 75.87 0.0
03 05:35 S 4 16.09 Fair CLR 1 -2 81% 75.87 0.0
Date Time (edt) Wind (kph) Vis. (km) Weather Sky Cond. Air Dwpt Max. Min. Relative Humidity Wind Chill (°C) Heat Index (°C) altimeter (cm) sea level (mb) 1 hr 3 hr 6 hr
6 hour
Temperature (ºC) Pressure Precipitation (cm)